sensor_id;sensor_type;location;lat;lon;timestamp;pressure;altitude;pressure_sealevel;temperature;humidity
4598;BME280;62772;48.646;8.906;2022-08-21T00:03:36;96439.16;;;14.06;90.16
4598;BME280;62772;48.646;8.906;2022-08-21T00:08:37;96439.84;;;14.70;87.33
4598;BME280;62772;48.646;8.906;2022-08-21T00:13:41;96438.66;;;14.92;85.90
4598;BME280;62772;48.646;8.906;2022-08-21T00:18:41;96444.34;;;15.03;85.16
4598;BME280;62772;48.646;8.906;2022-08-21T00:23:42;96440.00;;;15.11;84.76
4598;BME280;62772;48.646;8.906;2022-08-21T00:28:46;96432.94;;;14.94;85.13
4598;BME280;62772;48.646;8.906;2022-08-21T00:33:46;96427.34;;;14.99;85.03
4598;BME280;62772;48.646;8.906;2022-08-21T00:38:47;96422.50;;;15.04;84.83
4598;BME280;62772;48.646;8.906;2022-08-21T00:43:51;96427.19;;;14.83;85.71
4598;BME280;62772;48.646;8.906;2022-08-21T00:48:52;96428.09;;;14.87;85.59
4598;BME280;62772;48.646;8.906;2022-08-21T00:53:56;96417.09;;;14.67;86.93
4598;BME280;62772;48.646;8.906;2022-08-21T00:59:01;96421.81;;;14.37;88.38
4598;BME280;62772;48.646;8.906;2022-08-21T01:04:03;96411.38;;;14.69;85.94
4598;BME280;62772;48.646;8.906;2022-08-21T01:09:04;96419.13;;;14.83;85.38
4598;BME280;62772;48.646;8.906;2022-08-21T01:14:07;96420.47;;;14.77;85.25
4598;BME280;62772;48.646;8.906;2022-08-21T01:19:08;96418.50;;;14.19;87.62
4598;BME280;62772;48.646;8.906;2022-08-21T01:24:12;96418.53;;;14.31;87.20
4598;BME280;62772;48.646;8.906;2022-08-21T01:29:19;96412.97;;;14.37;86.41
4598;BME280;62772;48.646;8.906;2022-08-21T01:34:23;96405.53;;;13.67;88.69
4598;BME280;62772;48.646;8.906;2022-08-21T01:39:26;96399.50;;;14.24;86.93
4598;BME280;62772;48.646;8.906;2022-08-21T01:44:27;96395.94;;;14.32;86.02
4598;BME280;62772;48.646;8.906;2022-08-21T01:49:28;96397.97;;;14.36;85.67
4598;BME280;62772;48.646;8.906;2022-08-21T01:54:31;96393.56;;;14.31;85.29
4598;BME280;62772;48.646;8.906;2022-08-21T01:59:33;96389.78;;;14.32;85.09
4598;BME280;62772;48.646;8.906;2022-08-21T02:04:34;96389.84;;;14.23;85.10
4598;BME280;62772;48.646;8.906;2022-08-21T02:09:37;96383.59;;;14.19;85.00
4598;BME280;62772;48.646;8.906;2022-08-21T02:14:38;96378.88;;;14.16;85.10
4598;BME280;62772;48.646;8.906;2022-08-21T02:19:38;96384.88;;;14.01;86.62
4598;BME280;62772;48.646;8.906;2022-08-21T02:24:42;96376.75;;;13.88;86.25
4598;BME280;62772;48.646;8.906;2022-08-21T02:29:43;96372.69;;;13.82;87.06
4598;BME280;62772;48.646;8.906;2022-08-21T02:34:43;96371.63;;;13.41;88.00
4598;BME280;62772;48.646;8.906;2022-08-21T02:39:46;96375.47;;;12.93;91.31
4598;BME280;62772;48.646;8.906;2022-08-21T02:44:47;96371.00;;;13.35;89.06
4598;BME280;62772;48.646;8.906;2022-08-21T02:49:48;96362.97;;;13.27;89.54
4598;BME280;62772;48.646;8.906;2022-08-21T02:54:51;96367.88;;;13.03;89.79
4598;BME280;62772;48.646;8.906;2022-08-21T02:59:52;96365.75;;;12.41;93.00
4598;BME280;62772;48.646;8.906;2022-08-21T03:04:52;96370.97;;;12.76;91.72
4598;BME280;62772;48.646;8.906;2022-08-21T03:09:56;96364.28;;;11.96;94.31
4598;BME280;62772;48.646;8.906;2022-08-21T03:14:56;96364.91;;;12.66;92.71
4598;BME280;62772;48.646;8.906;2022-08-21T03:19:58;96363.47;;;12.99;89.81
4598;BME280;62772;48.646;8.906;2022-08-21T03:25:02;96357.56;;;12.37;92.77
4598;BME280;62772;48.646;8.906;2022-08-21T03:30:05;96366.78;;;12.19;95.13
4598;BME280;62772;48.646;8.906;2022-08-21T03:35:07;96367.56;;;12.66;92.34
4598;BME280;62772;48.646;8.906;2022-08-21T03:40:12;96358.41;;;12.67;91.87
4598;BME280;62772;48.646;8.906;2022-08-21T03:45:14;96361.81;;;12.85;90.17
4598;BME280;62772;48.646;8.906;2022-08-21T03:50:15;96362.78;;;12.81;89.25
4598;BME280;62772;48.646;8.906;2022-08-21T03:55:20;96368.28;;;12.84;88.72
4598;BME280;62772;48.646;8.906;2022-08-21T04:00:21;96374.72;;;12.83;88.04
4598;BME280;62772;48.646;8.906;2022-08-21T04:05:23;96376.19;;;12.81;87.76
4598;BME280;62772;48.646;8.906;2022-08-21T04:10:35;96383.47;;;12.72;88.75
4598;BME280;62772;48.646;8.906;2022-08-21T04:15:37;96379.56;;;12.60;89.40
4598;BME280;62772;48.646;8.906;2022-08-21T04:20:38;96390.53;;;12.29;89.71
4598;BME280;62772;48.646;8.906;2022-08-21T04:25:42;96388.19;;;11.31;95.72
4598;BME280;62772;48.646;8.906;2022-08-21T04:30:44;96400.66;;;11.71;94.97
4598;BME280;62772;48.646;8.906;2022-08-21T04:35:45;96405.84;;;12.02;93.62
4598;BME280;62772;48.646;8.906;2022-08-21T04:40:49;96404.09;;;12.24;92.42
4598;BME280;62772;48.646;8.906;2022-08-21T04:45:50;96410.38;;;12.28;91.17
4598;BME280;62772;48.646;8.906;2022-08-21T04:50:55;96410.53;;;12.23;92.44
4598;BME280;62772;48.646;8.906;2022-08-21T04:56:02;96417.66;;;12.10;93.63
4598;BME280;62772;48.646;8.906;2022-08-21T05:01:07;96417.19;;;12.08;95.07
4598;BME280;62772;48.646;8.906;2022-08-21T05:06:11;96422.84;;;11.89;96.61
4598;BME280;62772;48.646;8.906;2022-08-21T05:11:15;96424.66;;;10.47;100.00
4598;BME280;62772;48.646;8.906;2022-08-21T05:16:16;96432.66;;;11.18;100.00
4598;BME280;62772;48.646;8.906;2022-08-21T05:21:17;96426.28;;;11.63;100.00
4598;BME280;62772;48.646;8.906;2022-08-21T05:26:20;96424.53;;;11.41;100.00
4598;BME280;62772;48.646;8.906;2022-08-21T05:31:21;96428.66;;;11.91;100.00
4598;BME280;62772;48.646;8.906;2022-08-21T05:36:23;96431.34;;;12.17;100.00
4598;BME280;62772;48.646;8.906;2022-08-21T05:41:26;96438.06;;;12.49;100.00
4598;BME280;62772;48.646;8.906;2022-08-21T05:46:27;96445.22;;;12.84;100.00
4598;BME280;62772;48.646;8.906;2022-08-21T05:51:28;96433.53;;;12.88;100.00
4598;BME280;62772;48.646;8.906;2022-08-21T05:56:31;96431.16;;;13.25;100.00
4598;BME280;62772;48.646;8.906;2022-08-21T06:01:32;96431.28;;;13.38;100.00
4598;BME280;62772;48.646;8.906;2022-08-21T06:06:33;96443.69;;;13.42;100.00
4598;BME280;62772;48.646;8.906;2022-08-21T06:11:37;96441.69;;;13.39;100.00
4598;BME280;62772;48.646;8.906;2022-08-21T06:16:38;96442.34;;;13.57;100.00
4598;BME280;62772;48.646;8.906;2022-08-21T06:21:39;96442.78;;;13.68;99.36
4598;BME280;62772;48.646;8.906;2022-08-21T06:26:42;96436.75;;;13.92;99.04
4598;BME280;62772;48.646;8.906;2022-08-21T06:31:43;96440.06;;;13.89;99.23
4598;BME280;62772;48.646;8.906;2022-08-21T06:36:44;96444.22;;;14.08;97.51
4598;BME280;62772;48.646;8.906;2022-08-21T06:41:47;96435.72;;;14.18;96.13
4598;BME280;62772;48.646;8.906;2022-08-21T06:46:48;96432.78;;;14.32;94.44
4598;BME280;62772;48.646;8.906;2022-08-21T06:51:49;96424.66;;;14.53;93.64
4598;BME280;62772;48.646;8.906;2022-08-21T06:56:53;96424.75;;;14.57;90.50
4598;BME280;62772;48.646;8.906;2022-08-21T07:01:54;96425.63;;;14.82;90.79
4598;BME280;62772;48.646;8.906;2022-08-21T07:06:54;96426.63;;;14.77;89.42
4598;BME280;62772;48.646;8.906;2022-08-21T07:11:58;96420.16;;;15.15;86.34
4598;BME280;62772;48.646;8.906;2022-08-21T07:16:58;96425.63;;;15.19;88.76
4598;BME280;62772;48.646;8.906;2022-08-21T07:22:01;96425.53;;;15.40;88.54
4598;BME280;62772;48.646;8.906;2022-08-21T07:27:05;96425.69;;;15.72;86.06
4598;BME280;62772;48.646;8.906;2022-08-21T07:32:06;96422.78;;;15.77;84.57
4598;BME280;62772;48.646;8.906;2022-08-21T07:37:07;96415.13;;;15.91;86.59
4598;BME280;62772;48.646;8.906;2022-08-21T07:42:10;96413.59;;;16.06;85.03
4598;BME280;62772;48.646;8.906;2022-08-21T07:47:14;96411.47;;;16.56;82.41
4598;BME280;62772;48.646;8.906;2022-08-21T07:52:15;96403.78;;;16.42;80.21
4598;BME280;62772;48.646;8.906;2022-08-21T07:57:19;96413.41;;;16.88;77.57
4598;BME280;62772;48.646;8.906;2022-08-21T08:02:24;96415.75;;;17.05;78.85
4598;BME280;62772;48.646;8.906;2022-08-21T08:07:28;96409.25;;;16.90;78.29
4598;BME280;62772;48.646;8.906;2022-08-21T08:12:31;96406.00;;;17.00;75.10
4598;BME280;62772;48.646;8.906;2022-08-21T08:17:32;96407.50;;;17.14;73.95
4598;BME280;62772;48.646;8.906;2022-08-21T08:22:34;96397.53;;;17.34;73.87
4598;BME280;62772;48.646;8.906;2022-08-21T08:27:38;96389.34;;;18.01;68.38
4598;BME280;62772;48.646;8.906;2022-08-21T08:32:39;96386.66;;;17.85;71.08
4598;BME280;62772;48.646;8.906;2022-08-21T08:37:43;96380.28;;;17.74;69.96
4598;BME280;62772;48.646;8.906;2022-08-21T08:42:48;96377.94;;;18.11;63.55
4598;BME280;62772;48.646;8.906;2022-08-21T08:47:53;96381.31;;;18.47;63.62
4598;BME280;62772;48.646;8.906;2022-08-21T08:53:00;96370.59;;;18.31;60.88
4598;BME280;62772;48.646;8.906;2022-08-21T08:58:06;96363.59;;;18.30;60.71
4598;BME280;62772;48.646;8.906;2022-08-21T09:03:06;96364.94;;;18.40;60.30
4598;BME280;62772;48.646;8.906;2022-08-21T09:08:28;96361.81;;;18.38;61.87
4598;BME280;62772;48.646;8.906;2022-08-21T09:13:43;96360.09;;;19.49;58.79
4598;BME280;62772;48.646;8.906;2022-08-21T09:18:54;96357.97;;;19.09;59.56
4598;BME280;62772;48.646;8.906;2022-08-21T09:24:00;96352.03;;;19.26;58.82
4598;BME280;62772;48.646;8.906;2022-08-21T09:29:05;96355.25;;;19.35;59.27
4598;BME280;62772;48.646;8.906;2022-08-21T09:34:10;96342.16;;;19.68;56.25
4598;BME280;62772;48.646;8.906;2022-08-21T09:39:21;96344.91;;;20.05;55.47
4598;BME280;62772;48.646;8.906;2022-08-21T09:44:28;96346.59;;;19.83;54.44
4598;BME280;62772;48.646;8.906;2022-08-21T09:49:29;96342.16;;;19.68;55.14
4598;BME280;62772;48.646;8.906;2022-08-21T09:54:34;96340.78;;;19.81;52.91
4598;BME280;62772;48.646;8.906;2022-08-21T09:59:39;96333.78;;;19.80;54.29
4598;BME280;62772;48.646;8.906;2022-08-21T10:04:40;96331.91;;;19.84;54.48
4598;BME280;62772;48.646;8.906;2022-08-21T10:09:46;96327.56;;;20.14;54.17
4598;BME280;62772;48.646;8.906;2022-08-21T10:15:06;96322.59;;;20.19;54.09
4598;BME280;62772;48.646;8.906;2022-08-21T10:20:18;96321.66;;;20.04;54.81
4598;BME280;62772;48.646;8.906;2022-08-21T10:25:25;96314.88;;;20.25;55.16
4598;BME280;62772;48.646;8.906;2022-08-21T10:30:39;96307.81;;;20.54;53.46
4598;BME280;62772;48.646;8.906;2022-08-21T10:35:47;96306.19;;;20.98;51.95
4598;BME280;62772;48.646;8.906;2022-08-21T10:40:57;96305.50;;;21.08;51.11
4598;BME280;62772;48.646;8.906;2022-08-21T10:46:09;96296.78;;;20.81;50.54
4598;BME280;62772;48.646;8.906;2022-08-21T10:51:20;96293.41;;;20.50;51.57
4598;BME280;62772;48.646;8.906;2022-08-21T10:56:26;96288.84;;;21.13;51.29
4598;BME280;62772;48.646;8.906;2022-08-21T11:01:34;96293.75;;;20.93;53.47
4598;BME280;62772;48.646;8.906;2022-08-21T11:06:45;96288.81;;;21.90;51.94
4598;BME280;62772;48.646;8.906;2022-08-21T11:11:50;96279.41;;;21.66;50.82
4598;BME280;62772;48.646;8.906;2022-08-21T11:17:01;96278.34;;;21.89;51.86
4598;BME280;62772;48.646;8.906;2022-08-21T11:27:27;96273.88;;;21.45;50.94
4598;BME280;62772;48.646;8.906;2022-08-21T11:33:01;96269.97;;;21.46;52.41
4598;BME280;62772;48.646;8.906;2022-08-21T11:38:17;96272.94;;;22.21;49.21
4598;BME280;62772;48.646;8.906;2022-08-21T11:43:27;96267.47;;;21.96;49.18
4598;BME280;62772;48.646;8.906;2022-08-21T11:48:52;96262.06;;;22.79;47.02
4598;BME280;62772;48.646;8.906;2022-08-21T11:54:03;96259.34;;;22.25;46.74
4598;BME280;62772;48.646;8.906;2022-08-21T11:59:09;96257.00;;;22.09;46.99
4598;BME280;62772;48.646;8.906;2022-08-21T12:04:26;96252.00;;;22.40;48.11
4598;BME280;62772;48.646;8.906;2022-08-21T12:09:33;96252.31;;;22.99;46.26
4598;BME280;62772;48.646;8.906;2022-08-21T12:14:40;96241.81;;;22.98;44.75
4598;BME280;62772;48.646;8.906;2022-08-21T12:19:44;96236.81;;;22.71;46.75
4598;BME280;62772;48.646;8.906;2022-08-21T12:24:48;96232.53;;;22.74;46.87
4598;BME280;62772;48.646;8.906;2022-08-21T12:29:52;96221.19;;;23.08;46.57
4598;BME280;62772;48.646;8.906;2022-08-21T12:35:00;96225.47;;;23.05;45.59
4598;BME280;62772;48.646;8.906;2022-08-21T12:40:04;96220.81;;;22.91;45.29
4598;BME280;62772;48.646;8.906;2022-08-21T12:45:15;96216.88;;;23.21;43.13
4598;BME280;62772;48.646;8.906;2022-08-21T12:50:21;96214.84;;;23.40;44.04
4598;BME280;62772;48.646;8.906;2022-08-21T12:55:30;96217.97;;;23.38;44.37
4598;BME280;62772;48.646;8.906;2022-08-21T13:00:31;96218.38;;;23.40;42.99
4598;BME280;62772;48.646;8.906;2022-08-21T13:05:35;96211.41;;;23.25;43.74
4598;BME280;62772;48.646;8.906;2022-08-21T13:10:39;96218.06;;;23.09;42.40
4598;BME280;62772;48.646;8.906;2022-08-21T13:15:41;96210.47;;;23.57;42.05
4598;BME280;62772;48.646;8.906;2022-08-21T13:20:45;96202.56;;;23.80;42.79
4598;BME280;62772;48.646;8.906;2022-08-21T13:25:47;96201.00;;;23.79;41.59
4598;BME280;62772;48.646;8.906;2022-08-21T13:30:50;96206.75;;;23.96;42.67
4598;BME280;62772;48.646;8.906;2022-08-21T13:36:03;96204.94;;;23.71;43.44
4598;BME280;62772;48.646;8.906;2022-08-21T13:41:10;96197.06;;;23.91;42.03
4598;BME280;62772;48.646;8.906;2022-08-21T13:46:14;96197.53;;;23.71;42.61
4598;BME280;62772;48.646;8.906;2022-08-21T13:51:18;96196.81;;;23.60;42.52
4598;BME280;62772;48.646;8.906;2022-08-21T13:56:24;96190.22;;;23.61;44.45
4598;BME280;62772;48.646;8.906;2022-08-21T14:01:28;96199.16;;;23.62;43.02
4598;BME280;62772;48.646;8.906;2022-08-21T14:06:34;96187.78;;;23.74;43.36
4598;BME280;62772;48.646;8.906;2022-08-21T14:11:36;96193.69;;;23.69;43.93
4598;BME280;62772;48.646;8.906;2022-08-21T14:16:43;96196.81;;;23.60;43.73
4598;BME280;62772;48.646;8.906;2022-08-21T14:21:47;96185.56;;;23.58;43.08
4598;BME280;62772;48.646;8.906;2022-08-21T14:26:50;96180.41;;;23.71;43.14
4598;BME280;62772;48.646;8.906;2022-08-21T14:31:54;96170.00;;;23.55;42.52
4598;BME280;62772;48.646;8.906;2022-08-21T14:36:58;96174.38;;;23.42;43.00
4598;BME280;62772;48.646;8.906;2022-08-21T14:41:59;96174.28;;;23.56;43.47
4598;BME280;62772;48.646;8.906;2022-08-21T14:47:01;96170.88;;;23.38;43.19
4598;BME280;62772;48.646;8.906;2022-08-21T14:52:04;96167.44;;;23.26;44.78
4598;BME280;62772;48.646;8.906;2022-08-21T14:57:08;96161.38;;;23.67;42.68
4598;BME280;62772;48.646;8.906;2022-08-21T15:02:09;96157.00;;;23.77;45.13
4598;BME280;62772;48.646;8.906;2022-08-21T15:07:13;96153.81;;;23.93;42.59
4598;BME280;62772;48.646;8.906;2022-08-21T15:12:14;96147.22;;;23.80;41.38
4598;BME280;62772;48.646;8.906;2022-08-21T15:17:15;96144.88;;;23.89;43.58
4598;BME280;62772;48.646;8.906;2022-08-21T15:22:18;96150.25;;;24.00;43.98
4598;BME280;62772;48.646;8.906;2022-08-21T15:27:19;96152.22;;;23.99;42.83
4598;BME280;62772;48.646;8.906;2022-08-21T15:32:22;96143.91;;;24.14;41.99
4598;BME280;62772;48.646;8.906;2022-08-21T15:37:26;96140.50;;;23.99;42.84
4598;BME280;62772;48.646;8.906;2022-08-21T15:42:27;96139.41;;;23.89;41.76
4598;BME280;62772;48.646;8.906;2022-08-21T15:47:31;96132.78;;;23.90;44.07
4598;BME280;62772;48.646;8.906;2022-08-21T15:52:35;96138.28;;;23.86;43.48
4598;BME280;62772;48.646;8.906;2022-08-21T15:57:36;96128.97;;;23.73;45.19
4598;BME280;62772;48.646;8.906;2022-08-21T16:02:39;96126.66;;;23.75;44.68
4598;BME280;62772;48.646;8.906;2022-08-21T16:07:45;96123.41;;;23.95;43.11
4598;BME280;62772;48.646;8.906;2022-08-21T16:12:49;96115.91;;;24.06;42.20
4598;BME280;62772;48.646;8.906;2022-08-21T16:17:50;96113.69;;;23.90;44.47
4598;BME280;62772;48.646;8.906;2022-08-21T16:22:56;96117.47;;;24.07;44.54
4598;BME280;62772;48.646;8.906;2022-08-21T16:27:58;96114.03;;;23.99;44.15
4598;BME280;62772;48.646;8.906;2022-08-21T16:33:01;96115.22;;;23.95;44.30
4598;BME280;62772;48.646;8.906;2022-08-21T16:38:06;96107.84;;;23.92;44.45
4598;BME280;62772;48.646;8.906;2022-08-21T16:43:06;96107.50;;;23.82;44.09
4598;BME280;62772;48.646;8.906;2022-08-21T16:48:07;96115.25;;;23.91;44.65
4598;BME280;62772;48.646;8.906;2022-08-21T16:53:11;96110.56;;;23.92;44.27
4598;BME280;62772;48.646;8.906;2022-08-21T16:58:16;96107.06;;;23.91;44.27
4598;BME280;62772;48.646;8.906;2022-08-21T17:03:20;96102.22;;;24.09;44.23
4598;BME280;62772;48.646;8.906;2022-08-21T17:08:28;96098.78;;;24.05;44.60
4598;BME280;62772;48.646;8.906;2022-08-21T17:13:29;96101.50;;;24.05;42.98
4598;BME280;62772;48.646;8.906;2022-08-21T17:18:29;96108.16;;;23.97;43.38
4598;BME280;62772;48.646;8.906;2022-08-21T17:23:33;96099.69;;;23.88;42.44
4598;BME280;62772;48.646;8.906;2022-08-21T17:28:36;96104.38;;;23.87;42.10
4598;BME280;62772;48.646;8.906;2022-08-21T17:33:41;96099.78;;;23.70;42.74
4598;BME280;62772;48.646;8.906;2022-08-21T17:38:49;96102.56;;;23.66;42.85
4598;BME280;62772;48.646;8.906;2022-08-21T17:43:51;96104.69;;;23.41;44.78
4598;BME280;62772;48.646;8.906;2022-08-21T17:48:54;96108.28;;;23.23;44.60
4598;BME280;62772;48.646;8.906;2022-08-21T17:53:57;96116.44;;;23.27;46.60
4598;BME280;62772;48.646;8.906;2022-08-21T17:58:58;96118.69;;;23.39;44.79
4598;BME280;62772;48.646;8.906;2022-08-21T18:03:59;96115.56;;;23.41;44.60
4598;BME280;62772;48.646;8.906;2022-08-21T18:09:03;96114.94;;;23.15;45.75
4598;BME280;62772;48.646;8.906;2022-08-21T18:14:04;96117.78;;;22.82;48.67
4598;BME280;62772;48.646;8.906;2022-08-21T18:19:08;96117.09;;;22.46;50.24
4598;BME280;62772;48.646;8.906;2022-08-21T18:24:11;96128.00;;;21.92;50.79
4598;BME280;62772;48.646;8.906;2022-08-21T18:29:15;96133.47;;;21.99;51.86
4598;BME280;62772;48.646;8.906;2022-08-21T18:34:21;96136.97;;;21.89;53.31
4598;BME280;62772;48.646;8.906;2022-08-21T18:39:25;96147.44;;;21.83;53.57
4598;BME280;62772;48.646;8.906;2022-08-21T18:44:27;96148.94;;;21.48;54.49
4598;BME280;62772;48.646;8.906;2022-08-21T18:49:28;96140.31;;;21.25;55.08
4598;BME280;62772;48.646;8.906;2022-08-21T18:54:32;96151.81;;;20.86;55.42
4598;BME280;62772;48.646;8.906;2022-08-21T18:59:33;96156.84;;;20.21;56.14
4598;BME280;62772;48.646;8.906;2022-08-21T19:04:33;96152.16;;;19.73;57.21
4598;BME280;62772;48.646;8.906;2022-08-21T19:09:37;96160.94;;;20.00;57.20
4598;BME280;62772;48.646;8.906;2022-08-21T19:14:37;96153.47;;;20.42;56.85
4598;BME280;62772;48.646;8.906;2022-08-21T19:19:38;96171.53;;;20.75;56.54
4598;BME280;62772;48.646;8.906;2022-08-21T19:24:41;96169.00;;;20.48;56.50
4598;BME280;62772;48.646;8.906;2022-08-21T19:29:42;96166.59;;;19.84;59.31
4598;BME280;62772;48.646;8.906;2022-08-21T19:34:43;96172.78;;;19.85;59.85
4598;BME280;62772;48.646;8.906;2022-08-21T19:39:46;96180.06;;;19.39;61.52
4598;BME280;62772;48.646;8.906;2022-08-21T19:44:47;96179.09;;;18.91;63.46
4598;BME280;62772;48.646;8.906;2022-08-21T19:49:50;96179.19;;;18.67;64.21
4598;BME280;62772;48.646;8.906;2022-08-21T19:54:54;96177.47;;;19.50;63.63
4598;BME280;62772;48.646;8.906;2022-08-21T19:59:55;96180.38;;;19.68;62.46
4598;BME280;62772;48.646;8.906;2022-08-21T20:04:56;96187.50;;;19.84;61.75
4598;BME280;62772;48.646;8.906;2022-08-21T20:09:59;96190.16;;;19.77;61.27
4598;BME280;62772;48.646;8.906;2022-08-21T20:15:00;96185.06;;;19.75;61.53
4598;BME280;62772;48.646;8.906;2022-08-21T20:20:03;96185.16;;;19.45;62.00
4598;BME280;62772;48.646;8.906;2022-08-21T20:25:07;96180.53;;;19.11;63.12
4598;BME280;62772;48.646;8.906;2022-08-21T20:30:09;96178.94;;;18.53;64.00
4598;BME280;62772;48.646;8.906;2022-08-21T20:35:11;96179.47;;;18.62;64.07
4598;BME280;62772;48.646;8.906;2022-08-21T20:40:14;96181.13;;;18.97;62.70
4598;BME280;62772;48.646;8.906;2022-08-21T20:45:19;96181.56;;;18.99;61.82
4598;BME280;62772;48.646;8.906;2022-08-21T20:50:25;96184.66;;;19.01;62.35
4598;BME280;62772;48.646;8.906;2022-08-21T20:55:30;96187.22;;;18.10;65.78
4598;BME280;62772;48.646;8.906;2022-08-21T21:00:36;96188.78;;;17.88;68.10
4598;BME280;62772;48.646;8.906;2022-08-21T21:05:42;96180.63;;;17.42;69.20
4598;BME280;62772;48.646;8.906;2022-08-21T21:10:53;96176.75;;;17.86;68.60
4598;BME280;62772;48.646;8.906;2022-08-21T21:15:59;96175.38;;;17.95;67.91
4598;BME280;62772;48.646;8.906;2022-08-21T21:21:05;96176.47;;;18.14;66.42
4598;BME280;62772;48.646;8.906;2022-08-21T21:26:13;96185.47;;;17.99;66.68
4598;BME280;62772;48.646;8.906;2022-08-21T21:31:16;96182.69;;;17.29;70.04
4598;BME280;62772;48.646;8.906;2022-08-21T21:36:27;96179.53;;;17.27;69.68
4598;BME280;62772;48.646;8.906;2022-08-21T21:41:34;96181.34;;;16.64;72.31
4598;BME280;62772;48.646;8.906;2022-08-21T21:46:46;96176.47;;;15.42;76.53
4598;BME280;62772;48.646;8.906;2022-08-21T21:51:55;96184.81;;;15.09;78.74
4598;BME280;62772;48.646;8.906;2022-08-21T21:57:08;96177.81;;;15.65;76.80
4598;BME280;62772;48.646;8.906;2022-08-21T22:02:16;96169.53;;;16.53;72.60
4598;BME280;62772;48.646;8.906;2022-08-21T22:07:26;96175.34;;;16.91;70.78
4598;BME280;62772;48.646;8.906;2022-08-21T22:12:42;96173.75;;;17.06;69.32
4598;BME280;62772;48.646;8.906;2022-08-21T22:17:48;96179.41;;;17.00;70.62
4598;BME280;62772;48.646;8.906;2022-08-21T22:22:50;96179.13;;;16.86;70.33
4598;BME280;62772;48.646;8.906;2022-08-21T22:27:58;96173.78;;;15.87;72.28
4598;BME280;62772;48.646;8.906;2022-08-21T22:33:00;96180.41;;;15.17;74.55
4598;BME280;62772;48.646;8.906;2022-08-21T22:38:14;96192.63;;;15.87;73.38
4598;BME280;62772;48.646;8.906;2022-08-21T22:43:19;96186.94;;;15.76;74.25
4598;BME280;62772;48.646;8.906;2022-08-21T22:48:21;96190.91;;;16.10;72.95
4598;BME280;62772;48.646;8.906;2022-08-21T22:53:24;96190.53;;;16.28;71.19
4598;BME280;62772;48.646;8.906;2022-08-21T22:58:31;96191.13;;;16.37;70.65
4598;BME280;62772;48.646;8.906;2022-08-21T23:03:41;96186.25;;;16.43;69.86
4598;BME280;62772;48.646;8.906;2022-08-21T23:08:42;96184.94;;;16.37;70.34
4598;BME280;62772;48.646;8.906;2022-08-21T23:13:47;96181.22;;;16.41;69.78
4598;BME280;62772;48.646;8.906;2022-08-21T23:18:54;96170.03;;;16.23;69.91
4598;BME280;62772;48.646;8.906;2022-08-21T23:24:09;96166.09;;;16.37;68.93
4598;BME280;62772;48.646;8.906;2022-08-21T23:29:25;96172.91;;;16.14;69.70
4598;BME280;62772;48.646;8.906;2022-08-21T23:34:39;96174.47;;;16.00;70.25
4598;BME280;62772;48.646;8.906;2022-08-21T23:39:57;96169.91;;;15.56;71.14
4598;BME280;62772;48.646;8.906;2022-08-21T23:45:10;96170.00;;;15.59;71.40
4598;BME280;62772;48.646;8.906;2022-08-21T23:50:24;96174.06;;;15.82;70.50
4598;BME280;62772;48.646;8.906;2022-08-21T23:55:39;96174.09;;;15.69;70.64
